createdAt,value
2018-06-14T00:00:09.635Z,12.10
2018-06-14T00:02:40.543Z,12.10
2018-06-14T00:05:10.511Z,12.00
2018-06-14T00:07:45.071Z,12.10
2018-06-14T00:10:13.967Z,12.10
2018-06-14T00:12:52.442Z,12.10
2018-06-14T00:15:21.338Z,12.10
2018-06-14T00:17:50.251Z,12.10
2018-06-14T00:20:26.503Z,12.10
2018-06-14T00:23:00.955Z,12.10
2018-06-14T00:25:29.832Z,12.10
2018-06-14T00:28:00.610Z,12.10
2018-06-14T00:30:33.234Z,12.20
2018-06-14T00:35:30.890Z,12.10
2018-06-14T00:40:35.934Z,12.10
2018-06-14T00:43:04.803Z,12.10
2018-06-14T00:45:36.942Z,12.10
2018-06-14T00:48:13.079Z,12.10
2018-06-14T00:50:41.901Z,12.20
2018-06-14T00:53:18.614Z,12.20
2018-06-14T00:55:48.398Z,12.20
2018-06-14T00:58:21.602Z,12.20
2018-06-14T01:00:58.094Z,12.30
2018-06-14T01:03:32.698Z,12.30
2018-06-14T01:06:01.561Z,12.30
2018-06-14T01:08:30.550Z,12.30
2018-06-14T01:11:03.266Z,12.30
2018-06-14T01:13:35.374Z,12.20
2018-06-14T01:16:08.171Z,12.20
2018-06-14T01:18:40.155Z,12.20
2018-06-14T01:21:08.946Z,12.30
2018-06-14T01:23:43.310Z,12.30
2018-06-14T01:26:13.222Z,12.20
2018-06-14T01:28:43.020Z,12.20
2018-06-14T01:31:15.362Z,12.10
2018-06-14T01:33:49.150Z,12.10
2018-06-14T01:36:18.998Z,12.00
2018-06-14T01:38:49.815Z,12.00
2018-06-14T01:41:26.110Z,11.90
2018-06-14T01:43:58.982Z,11.90
2018-06-14T01:46:28.778Z,11.80
2018-06-14T01:48:57.610Z,11.80
2018-06-14T01:51:27.554Z,11.90
2018-06-14T01:54:07.258Z,11.90
2018-06-14T01:56:47.158Z,11.90
2018-06-14T01:59:20.478Z,11.90
2018-06-14T02:01:49.383Z,11.90
2018-06-14T02:04:20.266Z,11.90
2018-06-14T02:06:54.092Z,11.80
2018-06-14T02:09:29.594Z,11.80
2018-06-14T02:12:09.231Z,11.80
2018-06-14T02:14:40.119Z,11.80
2018-06-14T02:17:08.922Z,11.80
2018-06-14T02:19:57.398Z,11.90
2018-06-14T02:22:38.550Z,11.90
2018-06-14T02:25:08.370Z,11.90
2018-06-14T02:27:37.218Z,11.90
2018-06-14T02:30:08.119Z,11.90
2018-06-14T02:32:42.810Z,11.90
2018-06-14T02:35:21.960Z,11.90
2018-06-14T02:37:58.726Z,11.90
2018-06-14T02:40:27.607Z,11.80
2018-06-14T02:42:56.502Z,11.80
2018-06-14T02:45:27.322Z,11.80
2018-06-14T02:47:57.119Z,11.70
2018-06-14T02:50:25.938Z,11.80
2018-06-14T02:52:54.850Z,11.80
2018-06-14T02:55:28.132Z,11.90
2018-06-14T02:57:59.946Z,11.90
2018-06-14T03:00:28.815Z,11.90
2018-06-14T03:03:00.888Z,11.90
2018-06-14T03:05:41.012Z,11.90
2018-06-14T03:08:09.827Z,11.90
2018-06-14T03:10:55.007Z,11.90
2018-06-14T03:13:23.955Z,12.00
2018-06-14T03:15:54.463Z,11.90
2018-06-14T03:18:23.238Z,11.90
2018-06-14T03:23:22.578Z,11.90
2018-06-14T03:25:56.078Z,11.90
2018-06-14T03:28:32.589Z,11.90
2018-06-14T03:31:08.361Z,11.90
2018-06-14T03:33:42.345Z,11.90
2018-06-14T03:36:12.216Z,11.90
2018-06-14T03:38:41.046Z,11.90
2018-06-14T03:41:11.870Z,11.90
2018-06-14T03:43:46.338Z,12.00
2018-06-14T03:46:27.171Z,12.00
2018-06-14T03:49:07.709Z,12.00
2018-06-14T03:51:38.465Z,12.10
2018-06-14T03:54:07.329Z,12.10
2018-06-14T03:56:38.157Z,12.10
2018-06-14T03:59:12.753Z,12.10
2018-06-14T04:01:41.565Z,12.20
2018-06-14T04:04:10.478Z,12.20
2018-06-14T04:06:40.463Z,12.20
2018-06-14T04:09:10.753Z,12.20
2018-06-14T04:11:40.625Z,12.20
2018-06-14T04:14:09.462Z,12.20
2018-06-14T04:16:43.550Z,12.20
2018-06-14T04:22:10.133Z,12.10
2018-06-14T04:24:43.234Z,12.10
2018-06-14T04:27:20.535Z,12.10
2018-06-14T04:29:49.413Z,12.10
2018-06-14T04:32:30.398Z,12.10
2018-06-14T04:34:59.254Z,12.10
2018-06-14T04:37:51.117Z,12.10
2018-06-14T04:40:32.522Z,12.20
2018-06-14T04:43:06.161Z,12.30
2018-06-14T04:46:00.083Z,12.30
2018-06-14T04:48:28.914Z,12.40
2018-06-14T04:50:57.725Z,12.50
2018-06-14T04:53:26.518Z,12.50
2018-06-14T04:55:57.425Z,12.50
2018-06-14T04:58:26.214Z,12.60
2018-06-14T05:01:08.572Z,12.70
2018-06-14T05:03:37.730Z,12.80
2018-06-14T05:06:06.518Z,12.80
2018-06-14T05:08:36.325Z,12.90
2018-06-14T05:11:05.130Z,13.00
2018-06-14T05:13:46.040Z,13.00
2018-06-14T05:16:14.913Z,13.00
2018-06-14T05:18:45.838Z,13.00
2018-06-14T05:21:14.624Z,13.00
2018-06-14T05:23:46.798Z,13.10
2018-06-14T05:26:16.566Z,13.10
2018-06-14T05:28:45.374Z,13.10
2018-06-14T05:31:15.194Z,13.10
2018-06-14T05:33:50.562Z,13.20
2018-06-14T05:36:20.526Z,13.40
2018-06-14T05:38:53.154Z,13.30
2018-06-14T05:41:32.302Z,13.30
2018-06-14T05:44:08.158Z,13.50
2018-06-14T05:46:37.974Z,13.70
2018-06-14T05:49:07.878Z,13.80
2018-06-14T05:51:37.662Z,13.90
2018-06-14T05:54:06.430Z,14.10
2018-06-14T05:56:35.250Z,14.20
2018-06-14T05:59:04.127Z,14.20
2018-06-14T06:01:32.935Z,14.40
2018-06-14T06:04:08.685Z,14.50
2018-06-14T06:06:39.534Z,14.70
2018-06-14T06:09:10.617Z,15.00
2018-06-14T06:11:39.698Z,15.20
2018-06-14T06:14:09.554Z,15.40
2018-06-14T06:19:11.410Z,15.60
2018-06-14T06:21:40.174Z,15.60
2018-06-14T06:24:08.980Z,15.50
2018-06-14T06:26:45.266Z,15.50
2018-06-14T06:32:09.572Z,15.80
2018-06-14T06:34:38.410Z,16.20
2018-06-14T06:37:09.170Z,16.50
2018-06-14T06:39:37.885Z,16.80
2018-06-14T06:42:09.697Z,17.20
2018-06-14T06:44:45.905Z,17.40
2018-06-14T06:47:15.662Z,17.50
2018-06-14T06:49:50.994Z,17.70
2018-06-14T06:52:31.746Z,18.00
2018-06-14T06:55:03.082Z,18.10
2018-06-14T06:57:31.930Z,18.00
2018-06-14T07:00:00.722Z,18.30
2018-06-14T07:02:35.826Z,18.30
2018-06-14T07:05:06.546Z,18.40
2018-06-14T07:07:42.170Z,18.30
2018-06-14T07:10:11.023Z,17.90
2018-06-14T07:12:41.873Z,17.90
2018-06-14T07:15:10.642Z,18.40
2018-06-14T07:17:45.350Z,18.80
2018-06-14T07:20:36.544Z,19.10
2018-06-14T07:23:10.462Z,19.40
2018-06-14T07:25:45.986Z,19.50
2018-06-14T07:28:26.934Z,19.70
2018-06-14T07:31:08.785Z,19.80
2018-06-14T07:33:49.831Z,20.00
2018-06-14T07:36:19.602Z,20.10
2018-06-14T07:39:06.049Z,20.20
2018-06-14T07:41:34.781Z,20.20
2018-06-14T07:44:10.221Z,20.40
2018-06-14T07:46:43.189Z,20.70
2018-06-14T07:49:11.934Z,20.80
2018-06-14T07:51:51.055Z,20.60
2018-06-14T07:54:26.186Z,20.80
2018-06-14T07:56:56.981Z,20.80
2018-06-14T07:59:30.537Z,21.00
2018-06-14T08:01:59.257Z,20.90
2018-06-14T08:04:51.257Z,20.70
2018-06-14T08:07:20.993Z,20.70
2018-06-14T08:10:01.765Z,20.80
2018-06-14T08:12:40.998Z,21.10
2018-06-14T08:15:11.741Z,21.50
2018-06-14T08:17:41.468Z,21.70
2018-06-14T08:20:11.192Z,21.70
2018-06-14T08:25:10.397Z,20.90
2018-06-14T08:27:59.385Z,20.60
2018-06-14T08:30:33.805Z,20.80
2018-06-14T08:33:02.689Z,21.10
2018-06-14T08:35:32.473Z,20.80
2018-06-14T08:38:01.309Z,20.40
2018-06-14T08:40:35.572Z,20.20
2018-06-14T08:43:11.357Z,20.20
2018-06-14T08:45:40.125Z,20.20
2018-06-14T08:48:09.997Z,20.40
2018-06-14T08:50:44.553Z,20.80
2018-06-14T08:53:13.325Z,20.40
2018-06-14T08:55:47.981Z,19.60
2018-06-14T08:58:37.681Z,19.50
2018-06-14T09:01:11.125Z,19.60
2018-06-14T09:03:39.857Z,19.50
2018-06-14T09:06:10.616Z,19.30
2018-06-14T09:08:39.433Z,18.80
2018-06-14T09:11:10.290Z,18.90
2018-06-14T09:13:39.037Z,19.10
2018-06-14T09:16:09.809Z,19.20
2018-06-14T09:18:43.693Z,19.00
2018-06-14T09:21:13.510Z,19.30
2018-06-14T09:23:43.360Z,19.80
2018-06-14T09:26:24.148Z,20.00
2018-06-14T09:29:03.057Z,19.50
2018-06-14T09:31:31.788Z,19.70
2018-06-14T09:34:00.610Z,20.00
2018-06-14T09:36:34.164Z,20.20
2018-06-14T09:39:09.768Z,20.50
2018-06-14T09:41:40.098Z,20.60
2018-06-14T09:44:10.904Z,20.80
2018-06-14T09:46:41.758Z,21.00
2018-06-14T09:49:13.972Z,21.20
2018-06-14T09:51:48.536Z,21.50
2018-06-14T09:54:21.904Z,21.70
2018-06-14T09:56:50.664Z,22.30
2018-06-14T09:59:20.436Z,22.70
2018-06-14T10:02:00.011Z,22.90
2018-06-14T10:04:52.948Z,23.30
2018-06-14T10:07:21.816Z,23.70
2018-06-14T10:09:50.582Z,24.00
2018-06-14T10:12:19.356Z,24.20
2018-06-14T10:14:49.096Z,24.20
2018-06-14T10:17:18.922Z,24.00
2018-06-14T10:19:55.200Z,24.40
2018-06-14T10:22:30.045Z,24.70
2018-06-14T10:24:59.816Z,24.90
2018-06-14T10:27:36.084Z,25.10
2018-06-14T10:30:04.860Z,25.50
2018-06-14T10:32:56.408Z,25.60
2018-06-14T10:35:30.076Z,26.10
2018-06-14T10:38:01.889Z,26.40
2018-06-14T10:40:32.708Z,26.90
2018-06-14T10:43:04.000Z,26.70
2018-06-14T10:45:44.852Z,26.60
2018-06-14T10:48:19.073Z,26.40
2018-06-14T10:50:53.616Z,26.80
2018-06-14T10:53:23.464Z,26.60
2018-06-14T10:56:09.169Z,26.40
2018-06-14T10:58:58.560Z,25.80
2018-06-14T11:01:32.184Z,25.60
2018-06-14T11:04:05.640Z,25.20
2018-06-14T11:06:35.712Z,25.40
2018-06-14T11:09:08.038Z,25.60
2018-06-14T11:11:37.168Z,25.50
2018-06-14T11:14:08.320Z,24.80
2018-06-14T11:16:37.094Z,24.50
2018-06-14T11:19:05.884Z,24.30
2018-06-14T11:21:42.953Z,23.30
2018-06-14T11:24:15.565Z,22.10
2018-06-14T11:26:57.413Z,21.80
2018-06-14T11:29:44.349Z,21.90
2018-06-14T11:32:18.601Z,22.00
2018-06-14T11:37:23.806Z,22.10
2018-06-14T11:39:53.692Z,22.40
2018-06-14T11:42:22.617Z,22.50
2018-06-14T11:44:51.517Z,22.90
2018-06-14T11:47:24.877Z,23.30
2018-06-14T11:49:54.701Z,22.90
2018-06-14T11:52:24.135Z,23.00
2018-06-14T11:54:57.181Z,23.60
2018-06-14T11:57:28.009Z,24.30
2018-06-14T11:59:57.800Z,24.90
2018-06-14T12:02:26.933Z,25.00
2018-06-14T12:04:55.801Z,24.60
2018-06-14T12:07:29.557Z,24.90
2018-06-14T12:09:58.341Z,25.40
2018-06-14T12:12:29.173Z,25.20
2018-06-14T12:15:00.460Z,25.10
2018-06-14T12:17:30.237Z,24.90
2018-06-14T12:20:07.165Z,24.60
2018-06-14T12:22:42.889Z,24.50
2018-06-14T12:25:11.648Z,24.40
2018-06-14T12:27:41.401Z,24.40
2018-06-14T12:30:10.237Z,24.80
2018-06-14T12:32:42.348Z,25.30
2018-06-14T12:35:11.129Z,26.10
2018-06-14T12:37:41.957Z,26.20
2018-06-14T12:40:11.672Z,26.20
2018-06-14T12:42:46.381Z,26.30
2018-06-14T12:45:15.136Z,26.60
2018-06-14T12:47:46.092Z,26.50
2018-06-14T12:50:26.716Z,26.80
2018-06-14T12:52:55.828Z,27.20
2018-06-14T12:55:34.624Z,26.70
2018-06-14T12:58:09.360Z,26.80
2018-06-14T13:00:42.728Z,26.90
2018-06-14T13:03:11.531Z,27.40
2018-06-14T13:05:41.292Z,27.40
2018-06-14T13:08:11.020Z,26.90
2018-06-14T13:11:02.798Z,26.20
2018-06-14T13:13:35.892Z,25.30
2018-06-14T13:16:10.521Z,24.70
2018-06-14T13:18:39.612Z,24.60
2018-06-14T13:21:11.832Z,24.50
2018-06-14T13:26:14.708Z,24.60
2018-06-14T13:28:44.568Z,24.70
2018-06-14T13:31:13.340Z,24.70
2018-06-14T13:33:43.127Z,24.70
2018-06-14T13:36:11.912Z,24.70
2018-06-14T13:38:42.739Z,24.90
2018-06-14T13:41:11.483Z,25.00
2018-06-14T13:43:40.298Z,25.10
2018-06-14T13:46:11.092Z,25.30
2018-06-14T13:48:39.953Z,25.30
2018-06-14T13:51:12.159Z,25.60
2018-06-14T13:53:41.071Z,25.60
2018-06-14T13:56:10.931Z,25.60
2018-06-14T13:58:43.708Z,25.30
2018-06-14T14:01:12.503Z,24.80
2018-06-14T14:03:42.300Z,24.70
2018-06-14T14:06:11.135Z,25.00
2018-06-14T14:08:46.079Z,25.10
2018-06-14T14:11:33.203Z,25.00
2018-06-14T14:14:07.232Z,24.90
2018-06-14T14:16:41.263Z,24.80
2018-06-14T14:19:10.049Z,24.70
2018-06-14T14:21:59.635Z,24.70
2018-06-14T14:24:30.515Z,24.80
2018-06-14T14:27:01.307Z,24.80
2018-06-14T14:29:34.839Z,25.00
2018-06-14T14:32:08.683Z,25.50
2018-06-14T14:34:40.567Z,26.10
2018-06-14T14:37:11.388Z,26.00
2018-06-14T14:39:44.228Z,25.80
2018-06-14T14:42:13.024Z,25.60
2018-06-14T14:49:40.783Z,26.20
2018-06-14T14:52:09.555Z,25.60
2018-06-14T14:54:40.385Z,25.40
2018-06-14T14:57:11.335Z,25.00
2018-06-14T14:59:42.235Z,24.20
2018-06-14T15:02:13.017Z,24.00
2018-06-14T15:04:47.556Z,24.00
2018-06-14T15:07:17.323Z,23.70
2018-06-14T15:09:46.167Z,23.30
2018-06-14T15:12:18.556Z,23.00
2018-06-14T15:14:47.439Z,22.60
2018-06-14T15:17:20.088Z,22.10
2018-06-14T15:20:00.051Z,21.80
2018-06-14T15:22:38.627Z,21.90
2018-06-14T15:27:44.315Z,22.50
2018-06-14T15:30:25.891Z,23.60
2018-06-14T15:35:27.835Z,23.50
2018-06-14T15:37:56.587Z,23.20
2018-06-14T15:43:01.604Z,23.20
2018-06-14T15:45:38.227Z,23.10
2018-06-14T15:48:11.967Z,23.00
2018-06-14T15:53:35.637Z,24.10
2018-06-14T15:56:22.419Z,26.10
2018-06-14T15:58:51.248Z,27.50
2018-06-14T16:01:25.491Z,28.60
2018-06-14T16:03:55.455Z,29.50
2018-06-14T16:06:26.171Z,29.90
2018-06-14T16:08:54.959Z,28.80
2018-06-14T16:11:23.675Z,27.40
2018-06-14T16:13:52.452Z,27.80
2018-06-14T16:16:23.575Z,28.60
2018-06-14T16:18:57.867Z,29.00
2018-06-14T16:21:27.624Z,29.40
2018-06-14T16:23:56.367Z,28.80
2018-06-14T16:26:27.117Z,26.80
2018-06-14T16:28:59.127Z,25.10
2018-06-14T16:31:27.873Z,23.70
2018-06-14T16:33:56.603Z,22.70
2018-06-14T16:39:11.115Z,22.60
2018-06-14T16:41:45.479Z,23.80
2018-06-14T16:44:22.406Z,24.90
2018-06-14T16:46:52.139Z,25.60
2018-06-14T16:52:37.635Z,25.60
2018-06-14T16:55:08.343Z,25.30
2018-06-14T16:57:41.899Z,25.50
2018-06-14T17:00:11.663Z,25.50
2018-06-14T17:02:40.491Z,25.50
2018-06-14T17:05:12.459Z,25.00
2018-06-14T17:07:41.196Z,24.80
2018-06-14T17:10:21.967Z,25.00
2018-06-14T17:13:06.899Z,25.10
2018-06-14T17:15:35.642Z,24.90
2018-06-14T17:18:11.190Z,24.90
2018-06-14T17:20:51.002Z,24.20
2018-06-14T17:23:23.422Z,23.70
2018-06-14T17:25:58.214Z,24.10
2018-06-14T17:28:34.562Z,24.10
2018-06-14T17:31:04.343Z,24.00
2018-06-14T17:33:37.038Z,23.70
2018-06-14T17:36:05.978Z,23.40
2018-06-14T17:38:37.854Z,22.90
2018-06-14T17:41:12.239Z,22.40
2018-06-14T17:43:41.118Z,22.10
2018-06-14T17:46:11.008Z,22.20
2018-06-14T17:49:00.004Z,22.20
2018-06-14T17:51:30.734Z,21.90
2018-06-14T17:54:11.710Z,21.70
2018-06-14T17:56:59.154Z,21.20
2018-06-14T17:59:38.351Z,20.80
2018-06-14T18:02:19.250Z,20.50
2018-06-14T18:04:53.727Z,20.40
2018-06-14T18:07:23.571Z,20.30
2018-06-14T18:09:53.338Z,20.30
2018-06-14T18:12:32.098Z,20.00
2018-06-14T18:15:04.462Z,19.50
2018-06-14T18:17:34.057Z,18.90
2018-06-14T18:20:04.770Z,18.50
2018-06-14T18:22:41.886Z,18.10
2018-06-14T18:25:10.635Z,17.90
2018-06-14T18:27:39.406Z,17.60
2018-06-14T18:30:12.015Z,17.40
2018-06-14T18:32:41.823Z,17.10
2018-06-14T18:35:10.591Z,16.90
2018-06-14T18:40:33.255Z,16.50
2018-06-14T18:43:03.998Z,16.30
2018-06-14T18:45:38.691Z,16.10
2018-06-14T18:48:11.306Z,15.90
2018-06-14T18:50:45.299Z,15.70
2018-06-14T18:53:17.182Z,15.50
2018-06-14T18:55:45.950Z,15.30
2018-06-14T18:58:14.730Z,15.10
2018-06-14T19:00:49.382Z,15.00
2018-06-14T19:03:22.782Z,14.80
2018-06-14T19:08:32.370Z,14.40
2018-06-14T19:11:12.606Z,14.30
2018-06-14T19:13:41.366Z,14.20
2018-06-14T19:16:10.178Z,14.00
2018-06-14T19:18:49.326Z,14.00
2018-06-14T19:21:18.183Z,13.90
2018-06-14T19:23:47.998Z,13.80
2018-06-14T19:26:20.039Z,13.70
2018-06-14T19:28:50.823Z,13.80
2018-06-14T19:31:20.602Z,13.80
2018-06-14T19:33:52.946Z,13.70
2018-06-14T19:36:23.694Z,13.70
2018-06-14T19:39:02.350Z,13.70
2018-06-14T19:44:13.323Z,13.70
2018-06-14T19:46:44.187Z,13.70
2018-06-14T19:49:12.938Z,13.80
2018-06-14T19:51:42.678Z,13.70
2018-06-14T19:54:11.522Z,13.80
2018-06-14T19:56:51.362Z,13.70
2018-06-14T19:59:22.095Z,13.60
2018-06-14T20:01:51.989Z,13.50
2018-06-14T20:04:21.973Z,13.40
2018-06-14T20:06:50.818Z,13.40
2018-06-14T20:09:22.585Z,13.40
2018-06-14T20:11:55.918Z,13.30
2018-06-14T20:14:25.702Z,13.30
2018-06-14T20:16:54.510Z,13.30
2018-06-14T20:19:25.202Z,13.30
2018-06-14T20:21:58.402Z,13.30
2018-06-14T20:24:28.274Z,13.30
2018-06-14T20:26:59.050Z,13.30
2018-06-14T20:29:27.785Z,13.20
2018-06-14T20:31:57.566Z,13.00
2018-06-14T20:34:29.938Z,12.80
2018-06-14T20:37:04.668Z,12.60
2018-06-14T20:39:33.482Z,12.40
2018-06-14T20:42:02.394Z,12.20
2018-06-14T20:44:34.793Z,12.10
2018-06-14T20:47:03.881Z,12.10
2018-06-14T20:49:33.618Z,12.00
2018-06-14T20:52:02.414Z,11.90
2018-06-14T20:54:31.190Z,11.70
2018-06-14T20:57:00.031Z,11.60
2018-06-14T20:59:28.922Z,11.50
2018-06-14T21:01:57.777Z,11.50
2018-06-14T21:04:26.693Z,11.50
2018-06-14T21:06:57.591Z,11.50
2018-06-14T21:12:05.430Z,11.60
2018-06-14T21:14:34.206Z,11.60
2018-06-14T21:19:35.637Z,11.70
2018-06-14T21:22:08.701Z,11.80
2018-06-14T21:24:37.558Z,11.80
2018-06-14T21:27:07.274Z,11.80
2018-06-14T21:29:43.521Z,11.80
2018-06-14T21:32:13.305Z,11.80
2018-06-14T21:34:43.153Z,11.80
2018-06-14T21:37:12.777Z,11.80
2018-06-14T21:39:41.520Z,11.80
2018-06-14T21:42:14.078Z,11.90
2018-06-14T21:44:44.842Z,12.00
2018-06-14T21:47:14.670Z,12.00
2018-06-14T21:49:44.407Z,12.00
2018-06-14T21:52:13.245Z,12.10
2018-06-14T21:54:42.142Z,12.20
2018-06-14T21:57:11.886Z,12.20
2018-06-14T21:59:41.678Z,12.30
2018-06-14T22:02:11.470Z,12.40
2018-06-14T22:04:40.234Z,12.50
2018-06-14T22:07:13.102Z,12.60
2018-06-14T22:09:45.710Z,12.60
2018-06-14T22:12:14.475Z,12.60
2018-06-14T22:14:43.222Z,12.60
2018-06-14T22:17:13.963Z,12.60
2018-06-14T22:19:44.774Z,12.60
2018-06-14T22:24:54.046Z,12.70
2018-06-14T22:27:24.798Z,12.80
2018-06-14T22:29:54.645Z,12.70
2018-06-14T22:32:24.610Z,12.70
2018-06-14T22:35:05.870Z,12.60
2018-06-14T22:37:35.661Z,12.50
2018-06-14T22:40:09.570Z,12.40
2018-06-14T22:42:41.646Z,12.30
2018-06-14T22:47:40.954Z,12.00
2018-06-14T22:50:09.725Z,11.80
2018-06-14T22:52:53.855Z,11.70
2018-06-14T22:55:23.746Z,11.60
2018-06-14T22:57:53.573Z,11.50
2018-06-14T23:01:40.673Z,11.50
2018-06-14T23:04:11.638Z,11.50
2018-06-14T23:06:40.465Z,11.50
2018-06-14T23:10:23.361Z,11.50
2018-06-14T23:12:53.209Z,11.50
2018-06-14T23:15:26.285Z,11.50
2018-06-14T23:17:55.217Z,11.50
2018-06-14T23:20:26.053Z,11.60
2018-06-14T23:22:56.808Z,11.60
2018-06-14T23:25:27.441Z,11.70
2018-06-14T23:28:00.757Z,11.80
2018-06-14T23:33:05.409Z,11.80
2018-06-14T23:35:34.257Z,11.90
2018-06-14T23:38:05.052Z,12.00
2018-06-14T23:40:33.852Z,11.90
2018-06-14T23:43:06.005Z,12.00
2018-06-14T23:45:34.877Z,12.00
2018-06-14T23:48:11.065Z,12.00
2018-06-14T23:50:43.633Z,12.10
2018-06-14T23:53:12.857Z,12.20
2018-06-14T23:55:51.784Z,12.20
2018-06-14T23:58:20.595Z,12.20
